createdAt,value
2019-03-04T00:01:44.247Z,9.78
2019-03-04T00:06:49.389Z,9.89
2019-03-04T00:11:54.983Z,9.97
2019-03-04T00:17:01.498Z,9.94
2019-03-04T00:22:07.098Z,9.86
2019-03-04T00:27:12.329Z,9.96
2019-03-04T00:32:17.388Z,9.96
2019-03-04T00:37:22.520Z,9.98
2019-03-04T00:42:27.657Z,9.88
2019-03-04T00:47:32.792Z,9.78
2019-03-04T00:52:37.942Z,9.72
2019-03-04T00:57:43.450Z,9.65
2019-03-04T01:02:48.673Z,9.53
2019-03-04T01:07:54.204Z,9.44
2019-03-04T01:12:59.554Z,9.38
2019-03-04T01:18:05.211Z,9.32
2019-03-04T01:23:10.456Z,9.15
2019-03-04T01:28:16.965Z,8.95
2019-03-04T01:33:22.118Z,8.96
2019-03-04T01:38:27.861Z,9.01
2019-03-04T01:43:33.175Z,8.98
2019-03-04T01:48:39.172Z,9.00
2019-03-04T01:53:45.149Z,8.99
2019-03-04T01:58:50.200Z,8.94
2019-03-04T02:03:55.260Z,8.92
2019-03-04T02:09:01.262Z,8.81
2019-03-04T02:14:08.924Z,8.94
2019-03-04T02:19:14.313Z,8.87
2019-03-04T02:24:26.952Z,8.82
2019-03-04T02:29:33.051Z,8.84
2019-03-04T02:34:38.276Z,8.93
2019-03-04T02:39:43.442Z,8.84
2019-03-04T02:44:50.125Z,8.78
2019-03-04T02:49:55.103Z,8.77
2019-03-04T02:55:00.409Z,8.81
2019-03-04T03:00:07.038Z,8.80
2019-03-04T03:05:12.573Z,8.92
2019-03-04T03:10:17.803Z,8.97
2019-03-04T03:15:23.498Z,9.06
2019-03-04T03:20:28.966Z,9.08
2019-03-04T03:25:34.936Z,9.04
2019-03-04T03:30:40.003Z,9.02
2019-03-04T03:35:45.403Z,9.05
2019-03-04T03:40:51.245Z,9.15
2019-03-04T03:45:56.770Z,9.25
2019-03-04T03:51:01.990Z,9.34
2019-03-04T03:56:07.244Z,9.35
2019-03-04T04:01:12.376Z,9.35
2019-03-04T04:06:18.615Z,9.46
2019-03-04T04:11:23.856Z,9.51
2019-03-04T04:16:29.020Z,9.47
2019-03-04T04:21:34.258Z,9.49
2019-03-04T04:26:39.413Z,9.41
2019-03-04T04:31:45.250Z,9.50
2019-03-04T04:36:50.421Z,9.66
2019-03-04T04:41:55.603Z,9.87
2019-03-04T04:47:03.007Z,10.08
2019-03-04T04:52:08.650Z,10.28
2019-03-04T04:57:13.813Z,10.31
2019-03-04T05:02:18.974Z,10.36
2019-03-04T05:07:24.221Z,10.40
2019-03-04T05:12:29.818Z,10.35
2019-03-04T05:17:36.025Z,10.36
2019-03-04T05:22:41.585Z,10.34
2019-03-04T05:27:46.826Z,10.35
2019-03-04T05:32:52.629Z,10.33
2019-03-04T05:37:57.801Z,10.45
2019-03-04T05:43:03.048Z,10.50
2019-03-04T05:48:08.297Z,10.51
2019-03-04T05:53:13.976Z,10.55
2019-03-04T05:58:19.248Z,10.67
2019-03-04T06:03:25.078Z,10.66
2019-03-04T06:08:30.145Z,10.82
2019-03-04T06:13:35.653Z,10.90
2019-03-04T06:18:41.234Z,11.09
2019-03-04T06:23:46.484Z,11.25
2019-03-04T06:28:52.070Z,11.48
2019-03-04T06:33:58.191Z,11.84
2019-03-04T06:39:06.422Z,11.77
2019-03-04T06:44:11.736Z,11.75
2019-03-04T06:49:17.847Z,11.68
2019-03-04T06:55:04.881Z,11.77
2019-03-04T07:00:34.443Z,11.63
2019-03-04T07:05:50.837Z,11.44
2019-03-04T07:10:56.457Z,11.46
2019-03-04T07:16:03.443Z,11.45
2019-03-04T07:21:08.735Z,11.45
2019-03-04T07:26:14.478Z,11.42
2019-03-04T07:31:19.725Z,11.39
2019-03-04T07:36:25.257Z,11.39
2019-03-04T07:41:35.450Z,11.45
2019-03-04T07:46:42.024Z,11.45
2019-03-04T07:51:48.427Z,11.64
2019-03-04T07:56:54.232Z,11.93
2019-03-04T08:01:59.584Z,12.10
2019-03-04T08:07:45.366Z,12.11
2019-03-04T08:12:57.588Z,12.14
2019-03-04T08:18:04.609Z,12.18
2019-03-04T08:23:10.200Z,12.20
2019-03-04T08:28:16.604Z,12.33
2019-03-04T08:33:21.863Z,12.38
2019-03-04T08:38:27.119Z,12.35
2019-03-04T08:43:32.684Z,12.34
2019-03-04T08:48:38.287Z,12.25
2019-03-04T08:53:44.403Z,12.41
2019-03-04T08:58:51.539Z,12.31
2019-03-04T09:03:56.866Z,12.43
2019-03-04T09:09:02.126Z,13.10
2019-03-04T09:14:09.409Z,12.91
2019-03-04T09:19:15.046Z,13.23
2019-03-04T09:24:20.407Z,13.18
2019-03-04T09:29:26.252Z,13.14
2019-03-04T09:34:32.571Z,13.32
2019-03-04T09:39:37.885Z,13.30
2019-03-04T09:44:43.543Z,13.24
2019-03-04T09:49:48.789Z,13.30
2019-03-04T09:54:54.045Z,13.44
2019-03-04T09:59:59.406Z,13.87
2019-03-04T10:05:35.297Z,14.03
2019-03-04T10:11:31.568Z,14.09
2019-03-04T10:16:56.466Z,13.98
2019-03-04T10:22:28.917Z,14.06
2019-03-04T10:28:03.709Z,13.89
2019-03-04T10:34:00.889Z,13.83
2019-03-04T10:39:34.286Z,13.66
2019-03-04T10:45:14.302Z,13.75
2019-03-04T10:50:19.553Z,13.70
2019-03-04T10:55:25.379Z,13.91
2019-03-04T11:00:30.628Z,14.01
2019-03-04T11:05:36.934Z,13.92
2019-03-04T11:10:42.641Z,13.87
2019-03-04T11:15:48.247Z,13.10
2019-03-04T11:20:53.522Z,11.26
2019-03-04T11:25:58.999Z,10.75
2019-03-04T11:31:04.398Z,10.75
2019-03-04T11:36:09.658Z,11.07
2019-03-04T11:41:17.616Z,11.37
2019-03-04T11:46:24.775Z,11.50
2019-03-04T11:51:30.580Z,11.57
2019-03-04T11:56:36.053Z,11.51
2019-03-04T12:01:45.391Z,11.50
2019-03-04T12:06:51.284Z,11.65
2019-03-04T12:11:57.008Z,11.75
2019-03-04T12:17:02.747Z,11.80
2019-03-04T12:22:08.461Z,11.79
2019-03-04T12:27:14.127Z,11.73
2019-03-04T12:32:24.714Z,11.67
2019-03-04T12:37:31.554Z,11.66
2019-03-04T12:42:36.933Z,11.74
2019-03-04T12:47:43.089Z,11.77
2019-03-04T12:52:48.328Z,11.79
2019-03-04T12:57:53.730Z,11.77
2019-03-04T13:02:59.006Z,11.81
2019-03-04T13:08:05.533Z,11.74
2019-03-04T13:13:10.850Z,11.67
2019-03-04T13:18:16.108Z,11.67
2019-03-04T13:23:21.368Z,11.74
2019-03-04T13:28:27.176Z,11.69
2019-03-04T13:33:32.481Z,11.63
2019-03-04T13:38:37.839Z,11.44
2019-03-04T13:43:43.200Z,11.17
2019-03-04T13:48:49.682Z,11.05
2019-03-04T13:53:55.215Z,11.04
2019-03-04T13:59:00.663Z,11.04
2019-03-04T14:04:05.932Z,11.10
2019-03-04T14:09:12.378Z,11.26
2019-03-04T14:14:18.017Z,11.58
2019-03-04T14:19:23.399Z,11.82
2019-03-04T14:24:28.772Z,11.61
2019-03-04T14:29:34.031Z,11.70
2019-03-04T14:34:39.297Z,11.55
2019-03-04T14:39:46.358Z,11.55
2019-03-04T14:44:52.113Z,11.91
2019-03-04T14:50:09.191Z,11.31
2019-03-04T14:55:06.131Z,11.27
2019-03-04T15:00:17.192Z,11.06
2019-03-04T15:05:22.907Z,11.25
2019-03-04T15:10:28.167Z,11.20
2019-03-04T15:15:33.418Z,10.76
2019-03-04T15:20:38.802Z,10.48
2019-03-04T15:25:44.066Z,10.39
2019-03-04T15:30:51.623Z,10.34
2019-03-04T15:35:57.230Z,10.33
2019-03-04T15:41:02.503Z,10.23
2019-03-04T15:46:07.790Z,10.16
2019-03-04T15:51:13.436Z,9.87
2019-03-04T15:56:19.385Z,9.82
2019-03-04T16:01:24.929Z,9.67
2019-03-04T16:06:30.593Z,9.67
2019-03-04T16:11:35.833Z,9.54
2019-03-04T16:16:41.344Z,9.42
2019-03-04T16:21:46.888Z,9.34
2019-03-04T16:26:51.961Z,9.27
2019-03-04T16:31:57.141Z,9.23
2019-03-04T16:37:06.449Z,9.18
2019-03-04T16:42:12.072Z,9.15
2019-03-04T16:47:17.617Z,9.06
2019-03-04T16:52:26.433Z,6.36
2019-03-04T16:57:32.023Z,5.10
2019-03-04T17:02:37.238Z,4.84
2019-03-04T17:07:42.502Z,4.79
2019-03-04T17:12:47.658Z,4.93
2019-03-04T17:17:52.815Z,4.78
2019-03-04T17:22:59.074Z,4.64
2019-03-04T17:28:04.346Z,4.68
2019-03-04T17:33:09.504Z,4.64
2019-03-04T17:38:15.123Z,4.59
2019-03-04T17:43:20.616Z,4.56
2019-03-04T17:48:27.873Z,4.51
2019-03-04T17:53:33.038Z,4.55
2019-03-04T17:58:38.500Z,4.50
2019-03-04T18:03:44.728Z,4.43
2019-03-04T18:08:50.221Z,4.40
2019-03-04T18:13:55.381Z,4.59
2019-03-04T18:19:00.877Z,4.52
2019-03-04T18:24:06.486Z,4.55
2019-03-04T18:29:28.365Z,4.57
2019-03-04T18:34:58.856Z,4.51
2019-03-04T18:40:50.470Z,4.50
2019-03-04T18:46:42.531Z,4.69
2019-03-04T18:51:48.908Z,4.61
2019-03-04T18:56:54.249Z,4.50
2019-03-04T19:01:59.656Z,4.70
2019-03-04T19:07:05.000Z,4.50
2019-03-04T19:12:10.239Z,4.53
2019-03-04T19:17:15.651Z,4.50
2019-03-04T19:22:20.809Z,4.41
2019-03-04T19:27:25.992Z,4.33
2019-03-04T19:32:31.583Z,4.61
2019-03-04T19:37:37.821Z,4.54
2019-03-04T19:42:43.045Z,4.52
2019-03-04T19:47:49.044Z,4.42
2019-03-04T19:52:57.375Z,4.44
2019-03-04T19:58:02.542Z,4.50
2019-03-04T20:03:08.724Z,4.61
2019-03-04T20:08:14.313Z,4.49
2019-03-04T20:13:19.672Z,4.68
2019-03-04T20:18:24.831Z,4.46
2019-03-04T20:23:30.002Z,4.48
2019-03-04T20:28:35.153Z,4.44
2019-03-04T20:33:40.693Z,4.53
2019-03-04T20:38:48.161Z,4.45
2019-03-04T20:43:53.315Z,4.41
2019-03-04T20:48:59.488Z,4.49
2019-03-04T20:54:04.810Z,4.50
2019-03-04T20:59:09.964Z,4.57
2019-03-04T21:04:16.385Z,4.33
2019-03-04T21:09:22.987Z,4.31
2019-03-04T21:14:28.407Z,4.22
2019-03-04T21:19:33.983Z,4.26
2019-03-04T21:24:40.891Z,4.26
2019-03-04T21:30:22.090Z,4.30
2019-03-04T21:36:04.594Z,4.29
2019-03-04T21:41:20.320Z,4.12
2019-03-04T21:46:52.507Z,4.25
2019-03-04T21:52:36.318Z,4.33
2019-03-04T21:57:45.663Z,4.28
2019-03-04T22:02:58.060Z,4.29
2019-03-04T22:08:03.238Z,4.26
2019-03-04T22:13:08.473Z,4.31
2019-03-04T22:18:14.871Z,4.53
2019-03-04T22:23:20.269Z,4.34
2019-03-04T22:28:25.736Z,4.54
2019-03-04T22:33:30.927Z,4.54
2019-03-04T22:38:36.080Z,4.63
2019-03-04T22:43:41.254Z,4.61
2019-03-04T22:48:46.427Z,4.73
2019-03-04T22:53:51.730Z,4.73
2019-03-04T22:58:56.864Z,4.61
2019-03-04T23:04:23.136Z,4.49
2019-03-04T23:09:29.608Z,4.49
2019-03-04T23:14:34.887Z,4.56
2019-03-04T23:19:40.685Z,4.41
2019-03-04T23:24:45.847Z,4.55
2019-03-04T23:29:51.149Z,4.53
2019-03-04T23:34:56.304Z,4.48
2019-03-04T23:40:01.763Z,4.43
2019-03-04T23:45:09.354Z,4.44
2019-03-04T23:50:20.179Z,4.49
2019-03-04T23:55:25.340Z,4.38
